sensor_id;sensor_type;location;lat;lon;timestamp;P1;durP1;ratioP1;P2;durP2;ratioP2
85751;SDS011;76192;39.766;2.716;2024-03-23T00:54:03;17.10;;;10.80;;
85751;SDS011;76192;39.766;2.716;2024-03-23T00:56:28;16.00;;;9.90;;
85751;SDS011;76192;39.766;2.716;2024-03-23T00:58:54;15.00;;;9.20;;
85751;SDS011;76192;39.766;2.716;2024-03-23T01:01:20;17.60;;;9.40;;
85751;SDS011;76192;39.766;2.716;2024-03-23T01:03:46;14.40;;;10.00;;
85751;SDS011;76192;39.766;2.716;2024-03-23T01:06:11;13.40;;;9.60;;
85751;SDS011;76192;39.766;2.716;2024-03-23T01:08:37;15.50;;;8.90;;
85751;SDS011;76192;39.766;2.716;2024-03-23T01:11:03;11.60;;;8.70;;
85751;SDS011;76192;39.766;2.716;2024-03-23T01:13:29;18.90;;;9.70;;
85751;SDS011;76192;39.766;2.716;2024-03-23T01:15:55;15.80;;;8.70;;
85751;SDS011;76192;39.766;2.716;2024-03-23T01:18:22;12.20;;;8.40;;
85751;SDS011;76192;39.766;2.716;2024-03-23T01:20:49;14.20;;;8.90;;
85751;SDS011;76192;39.766;2.716;2024-03-23T01:23:15;14.00;;;8.10;;
85751;SDS011;76192;39.766;2.716;2024-03-23T01:25:40;14.20;;;9.20;;
85751;SDS011;76192;39.766;2.716;2024-03-23T01:28:06;19.00;;;10.70;;
85751;SDS011;76192;39.766;2.716;2024-03-23T01:30:35;16.40;;;11.50;;
85751;SDS011;76192;39.766;2.716;2024-03-23T01:33:01;18.50;;;9.70;;
85751;SDS011;76192;39.766;2.716;2024-03-23T01:35:30;16.50;;;8.00;;
85751;SDS011;76192;39.766;2.716;2024-03-23T01:37:55;11.10;;;6.00;;
85751;SDS011;76192;39.766;2.716;2024-03-23T01:40:21;11.10;;;5.20;;
85751;SDS011;76192;39.766;2.716;2024-03-23T01:42:56;9.60;;;5.10;;
85751;SDS011;76192;39.766;2.716;2024-03-23T01:45:22;13.60;;;5.80;;
85751;SDS011;76192;39.766;2.716;2024-03-23T01:47:49;13.60;;;6.50;;
85751;SDS011;76192;39.766;2.716;2024-03-23T01:50:18;12.00;;;6.90;;
85751;SDS011;76192;39.766;2.716;2024-03-23T01:52:44;16.40;;;7.50;;
85751;SDS011;76192;39.766;2.716;2024-03-23T01:55:11;13.90;;;8.90;;
85751;SDS011;76192;39.766;2.716;2024-03-23T01:57:37;14.80;;;8.60;;
85751;SDS011;76192;39.766;2.716;2024-03-23T02:00:03;17.90;;;9.00;;
85751;SDS011;76192;39.766;2.716;2024-03-23T02:02:29;20.10;;;10.20;;
85751;SDS011;76192;39.766;2.716;2024-03-23T02:04:55;17.40;;;9.90;;
85751;SDS011;76192;39.766;2.716;2024-03-23T02:07:21;18.40;;;8.70;;
85751;SDS011;76192;39.766;2.716;2024-03-23T02:09:46;16.50;;;8.90;;
85751;SDS011;76192;39.766;2.716;2024-03-23T02:12:12;15.90;;;8.50;;
85751;SDS011;76192;39.766;2.716;2024-03-23T02:14:38;14.90;;;8.80;;
85751;SDS011;76192;39.766;2.716;2024-03-23T02:17:03;18.30;;;9.50;;
85751;SDS011;76192;39.766;2.716;2024-03-23T02:19:29;15.90;;;8.70;;
85751;SDS011;76192;39.766;2.716;2024-03-23T02:21:55;12.70;;;7.10;;
85751;SDS011;76192;39.766;2.716;2024-03-23T02:24:20;12.40;;;7.60;;
85751;SDS011;76192;39.766;2.716;2024-03-23T02:26:46;13.00;;;8.10;;
85751;SDS011;76192;39.766;2.716;2024-03-23T02:29:13;15.80;;;7.40;;
85751;SDS011;76192;39.766;2.716;2024-03-23T02:31:39;11.50;;;7.70;;
85751;SDS011;76192;39.766;2.716;2024-03-23T02:34:04;10.00;;;7.10;;
85751;SDS011;76192;39.766;2.716;2024-03-23T02:36:30;13.20;;;7.10;;
85751;SDS011;76192;39.766;2.716;2024-03-23T02:38:56;14.80;;;7.90;;
85751;SDS011;76192;39.766;2.716;2024-03-23T02:41:21;14.00;;;9.00;;
85751;SDS011;76192;39.766;2.716;2024-03-23T02:43:51;17.20;;;9.10;;
85751;SDS011;76192;39.766;2.716;2024-03-23T02:46:17;15.70;;;8.30;;
85751;SDS011;76192;39.766;2.716;2024-03-23T02:48:43;17.30;;;8.10;;
85751;SDS011;76192;39.766;2.716;2024-03-23T02:51:09;17.80;;;7.80;;
85751;SDS011;76192;39.766;2.716;2024-03-23T02:53:34;15.00;;;8.00;;
85751;SDS011;76192;39.766;2.716;2024-03-23T02:56:00;10.50;;;7.10;;
85751;SDS011;76192;39.766;2.716;2024-03-23T02:58:25;11.90;;;6.20;;
85751;SDS011;76192;39.766;2.716;2024-03-23T03:00:51;11.30;;;6.10;;
85751;SDS011;76192;39.766;2.716;2024-03-23T03:03:17;8.80;;;5.60;;
85751;SDS011;76192;39.766;2.716;2024-03-23T03:05:42;8.80;;;5.30;;
85751;SDS011;76192;39.766;2.716;2024-03-23T03:08:08;11.80;;;5.50;;
85751;SDS011;76192;39.766;2.716;2024-03-23T03:10:34;8.70;;;5.20;;
85751;SDS011;76192;39.766;2.716;2024-03-23T03:13:01;13.50;;;5.20;;
85751;SDS011;76192;39.766;2.716;2024-03-23T03:15:27;10.00;;;4.10;;
85751;SDS011;76192;39.766;2.716;2024-03-23T03:17:53;12.30;;;5.40;;
85751;SDS011;76192;39.766;2.716;2024-03-23T03:20:18;9.50;;;5.90;;
85751;SDS011;76192;39.766;2.716;2024-03-23T03:22:44;12.80;;;6.20;;
85751;SDS011;76192;39.766;2.716;2024-03-23T03:25:09;11.20;;;5.90;;
85751;SDS011;76192;39.766;2.716;2024-03-23T03:27:35;18.20;;;7.80;;
85751;SDS011;76192;39.766;2.716;2024-03-23T03:30:01;10.60;;;6.90;;
85751;SDS011;76192;39.766;2.716;2024-03-23T03:32:31;15.80;;;7.50;;
85751;SDS011;76192;39.766;2.716;2024-03-23T03:34:57;11.30;;;7.20;;
85751;SDS011;76192;39.766;2.716;2024-03-23T03:37:23;12.70;;;7.10;;
85751;SDS011;76192;39.766;2.716;2024-03-23T03:39:49;11.60;;;7.10;;
85751;SDS011;76192;39.766;2.716;2024-03-23T03:42:15;17.90;;;7.00;;
85751;SDS011;76192;39.766;2.716;2024-03-23T03:44:41;12.80;;;6.20;;
85751;SDS011;76192;39.766;2.716;2024-03-23T03:47:06;13.80;;;7.70;;
85751;SDS011;76192;39.766;2.716;2024-03-23T03:49:32;14.50;;;7.20;;
85751;SDS011;76192;39.766;2.716;2024-03-23T03:51:57;19.50;;;9.30;;
85751;SDS011;76192;39.766;2.716;2024-03-23T03:54:23;15.50;;;9.40;;
85751;SDS011;76192;39.766;2.716;2024-03-23T03:56:49;12.30;;;8.60;;
85751;SDS011;76192;39.766;2.716;2024-03-23T03:59:14;18.10;;;11.10;;
85751;SDS011;76192;39.766;2.716;2024-03-23T04:01:41;16.10;;;8.90;;
85751;SDS011;76192;39.766;2.716;2024-03-23T04:04:06;15.50;;;9.20;;
85751;SDS011;76192;39.766;2.716;2024-03-23T04:06:32;14.20;;;8.40;;
85751;SDS011;76192;39.766;2.716;2024-03-23T04:08:58;12.10;;;7.20;;
85751;SDS011;76192;39.766;2.716;2024-03-23T04:11:24;12.70;;;7.20;;
85751;SDS011;76192;39.766;2.716;2024-03-23T04:13:50;10.80;;;7.10;;
85751;SDS011;76192;39.766;2.716;2024-03-23T04:16:28;11.30;;;6.50;;
85751;SDS011;76192;39.766;2.716;2024-03-23T04:18:55;12.70;;;6.80;;
85751;SDS011;76192;39.766;2.716;2024-03-23T04:21:21;10.30;;;5.70;;
85751;SDS011;76192;39.766;2.716;2024-03-23T04:23:48;10.80;;;5.60;;
85751;SDS011;76192;39.766;2.716;2024-03-23T04:26:14;9.90;;;6.80;;
85751;SDS011;76192;39.766;2.716;2024-03-23T04:28:40;8.40;;;5.40;;
85751;SDS011;76192;39.766;2.716;2024-03-23T04:31:06;14.70;;;6.90;;
85751;SDS011;76192;39.766;2.716;2024-03-23T04:33:32;13.30;;;6.10;;
85751;SDS011;76192;39.766;2.716;2024-03-23T04:35:57;13.70;;;6.70;;
85751;SDS011;76192;39.766;2.716;2024-03-23T04:38:23;9.90;;;6.10;;
85751;SDS011;76192;39.766;2.716;2024-03-23T04:40:58;9.40;;;5.00;;
85751;SDS011;76192;39.766;2.716;2024-03-23T04:43:25;12.50;;;5.00;;
85751;SDS011;76192;39.766;2.716;2024-03-23T04:45:51;9.70;;;6.90;;
85751;SDS011;76192;39.766;2.716;2024-03-23T04:48:19;11.50;;;7.20;;
85751;SDS011;76192;39.766;2.716;2024-03-23T04:50:45;12.70;;;7.70;;
85751;SDS011;76192;39.766;2.716;2024-03-23T04:53:10;11.50;;;6.70;;
85751;SDS011;76192;39.766;2.716;2024-03-23T04:55:36;12.40;;;5.30;;
85751;SDS011;76192;39.766;2.716;2024-03-23T04:58:02;13.80;;;6.40;;
85751;SDS011;76192;39.766;2.716;2024-03-23T05:00:28;13.70;;;6.90;;
85751;SDS011;76192;39.766;2.716;2024-03-23T05:02:54;12.80;;;6.50;;
85751;SDS011;76192;39.766;2.716;2024-03-23T05:05:19;14.40;;;6.80;;
85751;SDS011;76192;39.766;2.716;2024-03-23T05:07:45;11.20;;;7.30;;
85751;SDS011;76192;39.766;2.716;2024-03-23T05:10:10;11.40;;;7.70;;
85751;SDS011;76192;39.766;2.716;2024-03-23T05:12:36;12.30;;;8.00;;
85751;SDS011;76192;39.766;2.716;2024-03-23T05:15:04;14.70;;;9.40;;
85751;SDS011;76192;39.766;2.716;2024-03-23T05:17:31;16.20;;;10.80;;
85751;SDS011;76192;39.766;2.716;2024-03-23T05:19:57;18.70;;;11.00;;
85751;SDS011;76192;39.766;2.716;2024-03-23T05:22:22;15.90;;;8.40;;
85751;SDS011;76192;39.766;2.716;2024-03-23T05:24:48;13.50;;;7.40;;
85751;SDS011;76192;39.766;2.716;2024-03-23T05:27:14;11.20;;;7.30;;
85751;SDS011;76192;39.766;2.716;2024-03-23T05:29:40;9.60;;;6.00;;
85751;SDS011;76192;39.766;2.716;2024-03-23T05:32:06;8.50;;;4.70;;
85751;SDS011;76192;39.766;2.716;2024-03-23T05:34:32;7.70;;;4.80;;
85751;SDS011;76192;39.766;2.716;2024-03-23T05:36:57;17.60;;;8.20;;
85751;SDS011;76192;39.766;2.716;2024-03-23T05:39:23;19.60;;;8.50;;
85751;SDS011;76192;39.766;2.716;2024-03-23T05:41:49;27.40;;;11.40;;
85751;SDS011;76192;39.766;2.716;2024-03-23T05:44:15;26.20;;;12.50;;
85751;SDS011;76192;39.766;2.716;2024-03-23T05:46:40;26.40;;;13.70;;
85751;SDS011;76192;39.766;2.716;2024-03-23T05:49:06;21.20;;;11.40;;
85751;SDS011;76192;39.766;2.716;2024-03-23T05:51:32;17.80;;;8.50;;
85751;SDS011;76192;39.766;2.716;2024-03-23T05:53:58;20.40;;;9.40;;
85751;SDS011;76192;39.766;2.716;2024-03-23T05:56:24;14.30;;;6.90;;
85751;SDS011;76192;39.766;2.716;2024-03-23T05:58:51;18.70;;;8.50;;
85751;SDS011;76192;39.766;2.716;2024-03-23T06:01:16;14.50;;;8.90;;
85751;SDS011;76192;39.766;2.716;2024-03-23T06:03:42;13.10;;;7.40;;
85751;SDS011;76192;39.766;2.716;2024-03-23T06:06:09;13.50;;;5.10;;
85751;SDS011;76192;39.766;2.716;2024-03-23T06:08:37;10.30;;;5.70;;
85751;SDS011;76192;39.766;2.716;2024-03-23T06:11:04;10.20;;;4.60;;
85751;SDS011;76192;39.766;2.716;2024-03-23T06:13:33;11.00;;;5.20;;
85751;SDS011;76192;39.766;2.716;2024-03-23T06:16:00;11.60;;;5.60;;
85751;SDS011;76192;39.766;2.716;2024-03-23T06:18:26;10.10;;;7.50;;
85751;SDS011;76192;39.766;2.716;2024-03-23T06:20:53;15.40;;;6.60;;
85751;SDS011;76192;39.766;2.716;2024-03-23T06:23:18;13.10;;;7.40;;
85751;SDS011;76192;39.766;2.716;2024-03-23T06:25:45;19.80;;;9.50;;
85751;SDS011;76192;39.766;2.716;2024-03-23T06:28:11;11.80;;;7.30;;
85751;SDS011;76192;39.766;2.716;2024-03-23T06:30:37;11.50;;;7.80;;
85751;SDS011;76192;39.766;2.716;2024-03-23T06:33:03;18.40;;;7.50;;
85751;SDS011;76192;39.766;2.716;2024-03-23T06:35:30;11.90;;;5.90;;
85751;SDS011;76192;39.766;2.716;2024-03-23T06:37:57;14.00;;;7.00;;
85751;SDS011;76192;39.766;2.716;2024-03-23T06:40:23;13.00;;;6.70;;
85751;SDS011;76192;39.766;2.716;2024-03-23T06:42:49;11.50;;;5.70;;
85751;SDS011;76192;39.766;2.716;2024-03-23T06:45:15;10.20;;;5.50;;
85751;SDS011;76192;39.766;2.716;2024-03-23T06:47:41;9.00;;;4.80;;
85751;SDS011;76192;39.766;2.716;2024-03-23T06:50:07;12.00;;;7.40;;
85751;SDS011;76192;39.766;2.716;2024-03-23T06:52:32;14.80;;;8.70;;
85751;SDS011;76192;39.766;2.716;2024-03-23T06:54:58;12.70;;;6.80;;
85751;SDS011;76192;39.766;2.716;2024-03-23T06:57:24;12.90;;;7.00;;
85751;SDS011;76192;39.766;2.716;2024-03-23T06:59:49;14.90;;;7.50;;
85751;SDS011;76192;39.766;2.716;2024-03-23T07:02:15;9.20;;;6.20;;
85751;SDS011;76192;39.766;2.716;2024-03-23T07:04:41;12.00;;;6.80;;
85751;SDS011;76192;39.766;2.716;2024-03-23T07:07:06;12.40;;;6.50;;
85751;SDS011;76192;39.766;2.716;2024-03-23T07:09:32;12.30;;;7.30;;
85751;SDS011;76192;39.766;2.716;2024-03-23T07:11:58;11.20;;;5.50;;
85751;SDS011;76192;39.766;2.716;2024-03-23T07:14:24;9.90;;;5.50;;
85751;SDS011;76192;39.766;2.716;2024-03-23T07:16:50;8.10;;;5.90;;
85751;SDS011;76192;39.766;2.716;2024-03-23T07:19:16;10.30;;;5.70;;
85751;SDS011;76192;39.766;2.716;2024-03-23T07:21:43;10.70;;;5.50;;
85751;SDS011;76192;39.766;2.716;2024-03-23T07:24:09;10.30;;;5.10;;
85751;SDS011;76192;39.766;2.716;2024-03-23T07:26:35;15.90;;;8.50;;
85751;SDS011;76192;39.766;2.716;2024-03-23T07:29:01;11.40;;;7.80;;
85751;SDS011;76192;39.766;2.716;2024-03-23T07:31:27;11.40;;;6.70;;
85751;SDS011;76192;39.766;2.716;2024-03-23T07:33:53;14.80;;;8.50;;
85751;SDS011;76192;39.766;2.716;2024-03-23T07:36:18;14.70;;;8.70;;
85751;SDS011;76192;39.766;2.716;2024-03-23T07:38:44;13.80;;;7.30;;
85751;SDS011;76192;39.766;2.716;2024-03-23T07:41:15;12.60;;;9.90;;
85751;SDS011;76192;39.766;2.716;2024-03-23T07:43:45;15.90;;;9.20;;
85751;SDS011;76192;39.766;2.716;2024-03-23T07:46:12;18.50;;;9.10;;
85751;SDS011;76192;39.766;2.716;2024-03-23T07:48:39;17.40;;;9.50;;
85751;SDS011;76192;39.766;2.716;2024-03-23T07:51:26;16.40;;;9.10;;
85751;SDS011;76192;39.766;2.716;2024-03-23T07:53:51;15.20;;;9.20;;
85751;SDS011;76192;39.766;2.716;2024-03-23T07:56:18;15.30;;;10.10;;
85751;SDS011;76192;39.766;2.716;2024-03-23T07:58:47;22.60;;;9.70;;
85751;SDS011;76192;39.766;2.716;2024-03-23T08:01:16;16.30;;;9.70;;
85751;SDS011;76192;39.766;2.716;2024-03-23T08:03:45;17.00;;;9.30;;
85751;SDS011;76192;39.766;2.716;2024-03-23T08:06:15;18.70;;;9.40;;
85751;SDS011;76192;39.766;2.716;2024-03-23T08:08:44;18.40;;;10.10;;
85751;SDS011;76192;39.766;2.716;2024-03-23T08:11:14;19.60;;;11.00;;
85751;SDS011;76192;39.766;2.716;2024-03-23T08:13:41;24.70;;;11.40;;
85751;SDS011;76192;39.766;2.716;2024-03-23T08:16:08;24.10;;;13.30;;
85751;SDS011;76192;39.766;2.716;2024-03-23T08:18:37;23.00;;;10.90;;
85751;SDS011;76192;39.766;2.716;2024-03-23T08:21:03;19.60;;;10.70;;
85751;SDS011;76192;39.766;2.716;2024-03-23T08:23:31;27.10;;;11.10;;
85751;SDS011;76192;39.766;2.716;2024-03-23T08:26:07;25.70;;;10.30;;
85751;SDS011;76192;39.766;2.716;2024-03-23T08:28:34;24.90;;;14.00;;
85751;SDS011;76192;39.766;2.716;2024-03-23T08:31:01;17.20;;;10.10;;
85751;SDS011;76192;39.766;2.716;2024-03-23T08:33:33;21.00;;;11.00;;
85751;SDS011;76192;39.766;2.716;2024-03-23T08:36:05;17.80;;;9.80;;
85751;SDS011;76192;39.766;2.716;2024-03-23T08:38:33;22.90;;;10.40;;
85751;SDS011;76192;39.766;2.716;2024-03-23T08:41:00;19.30;;;9.70;;
85751;SDS011;76192;39.766;2.716;2024-03-23T08:43:31;19.00;;;10.20;;
85751;SDS011;76192;39.766;2.716;2024-03-23T08:46:04;21.60;;;10.90;;
85751;SDS011;76192;39.766;2.716;2024-03-23T08:48:40;20.80;;;10.10;;
85751;SDS011;76192;39.766;2.716;2024-03-23T08:51:13;18.40;;;9.80;;
85751;SDS011;76192;39.766;2.716;2024-03-23T08:53:40;17.70;;;9.50;;
85751;SDS011;76192;39.766;2.716;2024-03-23T08:56:06;15.20;;;9.70;;
85751;SDS011;76192;39.766;2.716;2024-03-23T08:58:33;14.70;;;7.60;;
85751;SDS011;76192;39.766;2.716;2024-03-23T09:01:03;15.40;;;8.00;;
85751;SDS011;76192;39.766;2.716;2024-03-23T09:03:37;14.00;;;8.00;;
85751;SDS011;76192;39.766;2.716;2024-03-23T09:06:09;11.30;;;6.90;;
85751;SDS011;76192;39.766;2.716;2024-03-23T09:08:36;15.20;;;6.40;;
85751;SDS011;76192;39.766;2.716;2024-03-23T09:11:10;12.80;;;7.00;;
85751;SDS011;76192;39.766;2.716;2024-03-23T09:13:37;12.40;;;6.80;;
85751;SDS011;76192;39.766;2.716;2024-03-23T09:16:04;10.30;;;7.10;;
85751;SDS011;76192;39.766;2.716;2024-03-23T09:18:35;12.10;;;6.10;;
85751;SDS011;76192;39.766;2.716;2024-03-23T09:21:03;13.30;;;7.90;;
85751;SDS011;76192;39.766;2.716;2024-03-23T09:23:29;13.30;;;7.90;;
85751;SDS011;76192;39.766;2.716;2024-03-23T09:25:55;15.30;;;7.40;;
85751;SDS011;76192;39.766;2.716;2024-03-23T09:28:21;13.30;;;7.70;;
85751;SDS011;76192;39.766;2.716;2024-03-23T09:30:47;16.90;;;10.20;;
85751;SDS011;76192;39.766;2.716;2024-03-23T09:33:12;13.10;;;8.70;;
85751;SDS011;76192;39.766;2.716;2024-03-23T09:38:05;13.40;;;9.70;;
85751;SDS011;76192;39.766;2.716;2024-03-23T09:40:32;19.40;;;10.60;;
85751;SDS011;76192;39.766;2.716;2024-03-23T09:42:58;10.30;;;5.90;;
85751;SDS011;76192;39.766;2.716;2024-03-23T09:45:27;12.60;;;5.30;;
85751;SDS011;76192;39.766;2.716;2024-03-23T09:47:57;10.10;;;5.80;;
85751;SDS011;76192;39.766;2.716;2024-03-23T09:50:22;8.00;;;4.40;;
85751;SDS011;76192;39.766;2.716;2024-03-23T09:52:48;7.50;;;4.30;;
85751;SDS011;76192;39.766;2.716;2024-03-23T09:55:14;8.80;;;3.90;;
85751;SDS011;76192;39.766;2.716;2024-03-23T09:57:40;6.90;;;3.40;;
85751;SDS011;76192;39.766;2.716;2024-03-23T10:00:07;10.10;;;4.70;;
85751;SDS011;76192;39.766;2.716;2024-03-23T10:02:37;16.30;;;11.60;;
85751;SDS011;76192;39.766;2.716;2024-03-23T10:05:03;13.90;;;7.00;;
85751;SDS011;76192;39.766;2.716;2024-03-23T10:07:29;12.40;;;5.60;;
85751;SDS011;76192;39.766;2.716;2024-03-23T10:09:55;10.60;;;5.50;;
85751;SDS011;76192;39.766;2.716;2024-03-23T10:12:21;16.20;;;7.10;;
85751;SDS011;76192;39.766;2.716;2024-03-23T10:14:48;14.00;;;5.30;;
85751;SDS011;76192;39.766;2.716;2024-03-23T10:17:21;9.60;;;4.70;;
85751;SDS011;76192;39.766;2.716;2024-03-23T10:19:51;8.90;;;4.20;;
85751;SDS011;76192;39.766;2.716;2024-03-23T10:22:22;8.60;;;4.30;;
85751;SDS011;76192;39.766;2.716;2024-03-23T10:27:15;9.20;;;4.00;;
85751;SDS011;76192;39.766;2.716;2024-03-23T10:29:48;7.70;;;3.90;;
85751;SDS011;76192;39.766;2.716;2024-03-23T10:32:17;10.10;;;5.30;;
85751;SDS011;76192;39.766;2.716;2024-03-23T10:34:44;14.70;;;7.30;;
85751;SDS011;76192;39.766;2.716;2024-03-23T10:37:10;10.20;;;6.10;;
85751;SDS011;76192;39.766;2.716;2024-03-23T10:39:40;9.90;;;5.50;;
85751;SDS011;76192;39.766;2.716;2024-03-23T10:42:07;8.30;;;5.00;;
85751;SDS011;76192;39.766;2.716;2024-03-23T10:44:35;11.20;;;5.50;;
85751;SDS011;76192;39.766;2.716;2024-03-23T10:47:01;9.30;;;4.80;;
85751;SDS011;76192;39.766;2.716;2024-03-23T10:49:32;9.50;;;5.30;;
85751;SDS011;76192;39.766;2.716;2024-03-23T10:51:59;8.70;;;5.10;;
85751;SDS011;76192;39.766;2.716;2024-03-23T10:54:26;9.70;;;4.80;;
85751;SDS011;76192;39.766;2.716;2024-03-23T10:57:02;15.70;;;7.90;;
85751;SDS011;76192;39.766;2.716;2024-03-23T10:59:32;12.50;;;8.10;;
85751;SDS011;76192;39.766;2.716;2024-03-23T11:02:00;9.30;;;5.40;;
85751;SDS011;76192;39.766;2.716;2024-03-23T11:04:30;12.50;;;6.60;;
85751;SDS011;76192;39.766;2.716;2024-03-23T11:06:59;14.20;;;6.70;;
85751;SDS011;76192;39.766;2.716;2024-03-23T11:15:13;8.30;;;4.20;;
85751;SDS011;76192;39.766;2.716;2024-03-23T11:17:39;9.20;;;3.60;;
85751;SDS011;76192;39.766;2.716;2024-03-23T11:20:06;7.20;;;4.10;;
85751;SDS011;76192;39.766;2.716;2024-03-23T11:25:16;7.80;;;4.90;;
85751;SDS011;76192;39.766;2.716;2024-03-23T11:27:46;8.70;;;5.30;;
85751;SDS011;76192;39.766;2.716;2024-03-23T11:30:13;9.70;;;5.20;;
85751;SDS011;76192;39.766;2.716;2024-03-23T11:32:41;12.40;;;5.90;;
85751;SDS011;76192;39.766;2.716;2024-03-23T11:35:08;13.30;;;6.90;;
85751;SDS011;76192;39.766;2.716;2024-03-23T11:37:37;14.20;;;7.50;;
85751;SDS011;76192;39.766;2.716;2024-03-23T11:40:18;10.70;;;7.90;;
85751;SDS011;76192;39.766;2.716;2024-03-23T11:42:45;12.50;;;7.50;;
85751;SDS011;76192;39.766;2.716;2024-03-23T11:45:10;10.60;;;6.60;;
85751;SDS011;76192;39.766;2.716;2024-03-23T11:47:37;10.20;;;6.60;;
85751;SDS011;76192;39.766;2.716;2024-03-23T11:50:02;11.70;;;6.40;;
85751;SDS011;76192;39.766;2.716;2024-03-23T11:52:28;11.70;;;6.20;;
85751;SDS011;76192;39.766;2.716;2024-03-23T11:55:04;12.00;;;5.60;;
85751;SDS011;76192;39.766;2.716;2024-03-23T11:57:32;12.20;;;6.00;;
85751;SDS011;76192;39.766;2.716;2024-03-23T11:59:59;11.30;;;6.50;;
85751;SDS011;76192;39.766;2.716;2024-03-23T12:02:24;7.50;;;6.60;;
85751;SDS011;76192;39.766;2.716;2024-03-23T12:04:50;13.30;;;5.30;;
85751;SDS011;76192;39.766;2.716;2024-03-23T12:07:17;7.70;;;6.10;;
85751;SDS011;76192;39.766;2.716;2024-03-23T12:09:44;11.80;;;6.30;;
85751;SDS011;76192;39.766;2.716;2024-03-23T12:15:00;8.70;;;4.10;;
85751;SDS011;76192;39.766;2.716;2024-03-23T12:17:28;9.10;;;5.10;;
85751;SDS011;76192;39.766;2.716;2024-03-23T12:19:54;9.00;;;4.70;;
85751;SDS011;76192;39.766;2.716;2024-03-23T12:22:23;10.90;;;5.50;;
85751;SDS011;76192;39.766;2.716;2024-03-23T12:24:49;19.70;;;7.20;;
85751;SDS011;76192;39.766;2.716;2024-03-23T12:27:15;9.40;;;6.10;;
85751;SDS011;76192;39.766;2.716;2024-03-23T12:29:41;11.50;;;6.20;;
85751;SDS011;76192;39.766;2.716;2024-03-23T12:32:08;16.00;;;5.40;;
85751;SDS011;76192;39.766;2.716;2024-03-23T12:34:34;12.80;;;5.80;;
85751;SDS011;76192;39.766;2.716;2024-03-23T12:37:00;10.90;;;6.50;;
85751;SDS011;76192;39.766;2.716;2024-03-23T12:39:26;8.80;;;5.40;;
85751;SDS011;76192;39.766;2.716;2024-03-23T12:41:52;7.10;;;5.10;;
85751;SDS011;76192;39.766;2.716;2024-03-23T12:44:18;10.00;;;6.00;;
85751;SDS011;76192;39.766;2.716;2024-03-23T12:46:44;11.00;;;5.90;;
85751;SDS011;76192;39.766;2.716;2024-03-23T12:49:10;11.20;;;5.40;;
85751;SDS011;76192;39.766;2.716;2024-03-23T12:51:37;11.20;;;5.70;;
85751;SDS011;76192;39.766;2.716;2024-03-23T12:54:03;11.40;;;6.70;;
85751;SDS011;76192;39.766;2.716;2024-03-23T12:56:29;13.30;;;5.50;;
85751;SDS011;76192;39.766;2.716;2024-03-23T12:58:55;14.80;;;7.50;;
85751;SDS011;76192;39.766;2.716;2024-03-23T13:01:25;13.10;;;7.40;;
85751;SDS011;76192;39.766;2.716;2024-03-23T13:03:51;8.20;;;4.60;;
85751;SDS011;76192;39.766;2.716;2024-03-23T13:06:18;6.60;;;3.70;;
85751;SDS011;76192;39.766;2.716;2024-03-23T13:08:45;6.60;;;4.30;;
85751;SDS011;76192;39.766;2.716;2024-03-23T13:11:11;9.80;;;4.70;;
85751;SDS011;76192;39.766;2.716;2024-03-23T13:13:38;9.70;;;5.20;;
85751;SDS011;76192;39.766;2.716;2024-03-23T13:16:04;9.40;;;6.20;;
85751;SDS011;76192;39.766;2.716;2024-03-23T13:18:30;10.30;;;5.40;;
85751;SDS011;76192;39.766;2.716;2024-03-23T13:20:57;14.70;;;5.80;;
85751;SDS011;76192;39.766;2.716;2024-03-23T13:23:23;9.00;;;5.80;;
85751;SDS011;76192;39.766;2.716;2024-03-23T13:25:49;20.10;;;5.20;;
85751;SDS011;76192;39.766;2.716;2024-03-23T13:28:16;14.90;;;6.90;;
85751;SDS011;76192;39.766;2.716;2024-03-23T13:30:49;8.50;;;4.40;;
85751;SDS011;76192;39.766;2.716;2024-03-23T13:33:18;7.30;;;4.20;;
85751;SDS011;76192;39.766;2.716;2024-03-23T13:35:53;8.10;;;4.10;;
85751;SDS011;76192;39.766;2.716;2024-03-23T13:38:23;13.10;;;6.00;;
85751;SDS011;76192;39.766;2.716;2024-03-23T13:40:58;7.90;;;5.20;;
85751;SDS011;76192;39.766;2.716;2024-03-23T13:43:25;9.50;;;6.60;;
85751;SDS011;76192;39.766;2.716;2024-03-23T13:45:58;7.60;;;4.80;;
85751;SDS011;76192;39.766;2.716;2024-03-23T13:48:25;12.00;;;6.30;;
85751;SDS011;76192;39.766;2.716;2024-03-23T13:50:59;13.70;;;6.90;;
85751;SDS011;76192;39.766;2.716;2024-03-23T13:53:29;11.00;;;6.40;;
85751;SDS011;76192;39.766;2.716;2024-03-23T13:55:55;10.80;;;5.30;;
85751;SDS011;76192;39.766;2.716;2024-03-23T13:58:21;9.30;;;4.90;;
85751;SDS011;76192;39.766;2.716;2024-03-23T14:00:48;6.60;;;4.40;;
85751;SDS011;76192;39.766;2.716;2024-03-23T14:03:14;9.90;;;4.30;;
85751;SDS011;76192;39.766;2.716;2024-03-23T14:05:40;6.80;;;4.50;;
85751;SDS011;76192;39.766;2.716;2024-03-23T14:08:09;7.60;;;5.40;;
85751;SDS011;76192;39.766;2.716;2024-03-23T14:10:36;8.10;;;4.60;;
85751;SDS011;76192;39.766;2.716;2024-03-23T14:13:06;9.00;;;6.10;;
85751;SDS011;76192;39.766;2.716;2024-03-23T14:15:32;10.80;;;7.80;;
85751;SDS011;76192;39.766;2.716;2024-03-23T14:17:58;12.70;;;7.40;;
85751;SDS011;76192;39.766;2.716;2024-03-23T14:20:25;13.60;;;8.40;;
85751;SDS011;76192;39.766;2.716;2024-03-23T14:22:51;11.20;;;5.40;;
85751;SDS011;76192;39.766;2.716;2024-03-23T14:25:17;12.20;;;6.00;;
85751;SDS011;76192;39.766;2.716;2024-03-23T14:27:44;9.30;;;4.40;;
85751;SDS011;76192;39.766;2.716;2024-03-23T14:30:10;9.90;;;5.70;;
85751;SDS011;76192;39.766;2.716;2024-03-23T14:32:40;9.20;;;4.80;;
85751;SDS011;76192;39.766;2.716;2024-03-23T14:35:07;9.20;;;4.40;;
85751;SDS011;76192;39.766;2.716;2024-03-23T14:37:36;11.70;;;5.70;;
85751;SDS011;76192;39.766;2.716;2024-03-23T14:40:03;8.80;;;5.00;;
85751;SDS011;76192;39.766;2.716;2024-03-23T14:42:29;9.60;;;4.70;;
85751;SDS011;76192;39.766;2.716;2024-03-23T14:44:57;9.20;;;4.70;;
85751;SDS011;76192;39.766;2.716;2024-03-23T14:47:23;6.60;;;5.00;;
85751;SDS011;76192;39.766;2.716;2024-03-23T14:49:49;8.50;;;3.30;;
85751;SDS011;76192;39.766;2.716;2024-03-23T14:52:17;8.90;;;3.10;;
85751;SDS011;76192;39.766;2.716;2024-03-23T14:54:46;6.30;;;3.30;;
85751;SDS011;76192;39.766;2.716;2024-03-23T14:57:12;7.20;;;3.50;;
85751;SDS011;76192;39.766;2.716;2024-03-23T14:59:38;5.90;;;3.50;;
85751;SDS011;76192;39.766;2.716;2024-03-23T15:02:06;6.00;;;3.80;;
85751;SDS011;76192;39.766;2.716;2024-03-23T15:04:32;7.30;;;4.20;;
85751;SDS011;76192;39.766;2.716;2024-03-23T15:06:58;8.10;;;3.70;;
85751;SDS011;76192;39.766;2.716;2024-03-23T15:09:24;4.80;;;2.90;;
85751;SDS011;76192;39.766;2.716;2024-03-23T15:11:49;5.50;;;3.70;;
85751;SDS011;76192;39.766;2.716;2024-03-23T15:14:15;7.90;;;3.40;;
85751;SDS011;76192;39.766;2.716;2024-03-23T15:16:40;7.40;;;4.20;;
85751;SDS011;76192;39.766;2.716;2024-03-23T15:19:07;7.70;;;3.60;;
85751;SDS011;76192;39.766;2.716;2024-03-23T15:21:33;6.00;;;3.00;;
85751;SDS011;76192;39.766;2.716;2024-03-23T15:23:59;6.50;;;3.20;;
85751;SDS011;76192;39.766;2.716;2024-03-23T15:26:24;5.80;;;2.80;;
85751;SDS011;76192;39.766;2.716;2024-03-23T15:28:51;7.00;;;3.20;;
85751;SDS011;76192;39.766;2.716;2024-03-23T15:31:22;10.50;;;3.10;;
85751;SDS011;76192;39.766;2.716;2024-03-23T15:33:48;7.10;;;3.30;;
85751;SDS011;76192;39.766;2.716;2024-03-23T15:36:14;4.90;;;2.80;;
85751;SDS011;76192;39.766;2.716;2024-03-23T15:38:40;8.30;;;3.30;;
85751;SDS011;76192;39.766;2.716;2024-03-23T15:41:05;6.80;;;3.40;;
85751;SDS011;76192;39.766;2.716;2024-03-23T15:43:32;5.40;;;3.00;;